Time;durP1;ratioP1;P1;durP2;ratioP2;P2;SDS_P1;SDS_P2;PMS_P1;PMS_P2;Temp;Humidity;BMP_temperature;BMP_pressure;BME280_temperature;BME280_humidity;BME280_pressure;Samples;Min_cycle;Max_cycle;Signal;HPM_P1;HPM_P2
2021/06/08 00:01:25;;;;;;;34.35;29.63;;;12.70;99.90;;;;;;5099863;28;20468;-65
2021/06/08 00:03:51;;;;;;;36.65;28.23;;;12.70;99.90;;;;;;5082625;28;20124;-65
2021/06/08 00:06:18;;;;;;;53.10;35.05;;;12.70;99.90;;;;;;5103714;28;20055;-65
2021/06/08 00:08:43;;;;;;;55.05;34.42;;;12.60;99.90;;;;;;5094976;28;20043;-65
2021/06/08 00:11:10;;;;;;;73.85;35.88;;;12.50;99.90;;;;;;5100335;28;20411;-65
2021/06/08 00:13:36;;;;;;;73.38;38.80;;;12.40;99.90;;;;;;5090625;28;20376;-65
2021/06/08 00:16:02;;;;;;;40.92;32.20;;;12.30;99.90;;;;;;5101752;28;20035;-65
2021/06/08 00:18:28;;;;;;;58.05;36.47;;;12.30;99.90;;;;;;5097757;28;20411;-65
2021/06/08 00:20:54;;;;;;;67.70;39.42;;;12.20;99.90;;;;;;5103752;28;20038;-65
2021/06/08 00:23:20;;;;;;;49.85;37.13;;;12.20;99.90;;;;;;5091633;28;20479;-65
2021/06/08 00:25:46;;;;;;;59.85;38.67;;;12.10;99.90;;;;;;5101579;28;20042;-65
2021/06/08 00:28:12;;;;;;;39.40;31.38;;;12.10;99.90;;;;;;5094986;28;20088;-65
2021/06/08 00:30:38;;;;;;;40.58;34.13;;;12.20;99.90;;;;;;5097240;28;20047;-63
2021/06/08 00:33:04;;;;;;;41.42;34.28;;;12.20;99.90;;;;;;5094271;28;20031;-63
2021/06/08 00:35:31;;;;;;;49.60;38.40;;;12.30;99.90;;;;;;5100528;28;20479;-63
2021/06/08 00:37:59;;;;;;;53.53;39.78;;;12.20;99.90;;;;;;5088050;28;20359;-63
2021/06/08 00:40:28;;;;;;;50.80;38.72;;;12.20;99.90;;;;;;5095299;28;20040;-63
2021/06/08 00:42:55;;;;;;;48.00;37.33;;;12.20;99.90;;;;;;5103145;28;20089;-63
2021/06/08 00:45:21;;;;;;;40.00;33.90;;;12.20;99.90;;;;;;5080513;28;20040;-63
2021/06/08 00:47:50;;;;;;;46.15;37.42;;;12.10;99.90;;;;;;5092766;28;20392;-63
2021/06/08 00:50:36;;;;;;;52.10;40.55;;;12.10;99.90;;;;;;5086560;28;20131;-63
2021/06/08 00:53:08;;;;;;;58.20;40.17;;;12.00;99.90;;;;;;5104471;28;20056;-63
2021/06/08 00:55:34;;;;;;;44.42;37.17;;;12.10;99.90;;;;;;5089716;28;20102;-63
2021/06/08 00:58:00;;;;;;;49.05;38.28;;;12.10;99.90;;;;;;5103465;28;20399;-63
2021/06/08 01:00:29;;;;;;;47.60;38.15;;;12.10;99.90;;;;;;5091319;28;20035;-63
2021/06/08 01:02:55;;;;;;;46.33;37.30;;;12.10;99.90;;;;;;5100436;28;20063;-63
2021/06/08 01:05:21;;;;;;;39.95;33.47;;;12.20;99.90;;;;;;5094506;28;20318;-63
2021/06/08 01:07:47;;;;;;;57.22;38.40;;;12.20;99.90;;;;;;5102517;28;20073;-63
2021/06/08 01:10:13;;;;;;;42.20;34.88;;;12.00;99.90;;;;;;5096811;28;20040;-63
2021/06/08 01:12:39;;;;;;;46.80;35.63;;;12.00;99.90;;;;;;5099005;28;20417;-63
2021/06/08 01:15:08;;;;;;;46.80;37.78;;;12.00;99.90;;;;;;5095443;28;20054;-63
2021/06/08 01:17:33;;;;;;;48.10;38.95;;;12.00;99.90;;;;;;5101632;28;20047;-63
2021/06/08 01:19:59;;;;;;;49.13;38.78;;;12.00;99.90;;;;;;5078306;28;20471;-64
2021/06/08 01:22:26;;;;;;;45.35;38.28;;;12.10;99.90;;;;;;5100936;28;20073;-64
2021/06/08 01:24:53;;;;;;;44.92;37.40;;;12.10;99.90;;;;;;5092448;28;20039;-64
2021/06/08 01:27:20;;;;;;;43.63;36.05;;;12.00;99.90;;;;;;5106693;28;20463;-64
2021/06/08 01:29:47;;;;;;;48.10;36.40;;;12.00;99.90;;;;;;5101291;28;20131;-64
2021/06/08 01:32:15;;;;;;;70.57;39.78;;;12.00;99.90;;;;;;5094914;28;20526;-64
2021/06/08 01:34:43;;;;;;;52.42;40.40;;;12.00;99.90;;;;;;5098265;28;20047;-64
2021/06/08 01:37:09;;;;;;;48.30;38.85;;;11.90;99.90;;;;;;5093150;28;20047;-64
2021/06/08 01:39:37;;;;;;;91.05;43.45;;;12.00;99.90;;;;;;5082854;28;20044;-64
2021/06/08 01:42:04;;;;;;;55.40;42.40;;;12.00;99.90;;;;;;5094631;28;20131;-63
2021/06/08 01:44:31;;;;;;;53.55;39.75;;;12.00;99.90;;;;;;5103681;28;20389;-64
2021/06/08 01:46:57;;;;;;;62.33;44.72;;;12.00;99.90;;;;;;5094171;28;20042;-64
2021/06/08 01:49:23;;;;;;;48.72;39.95;;;11.90;99.90;;;;;;5097514;28;20052;-64
2021/06/08 01:51:55;;;;;;;45.33;35.65;;;11.90;99.90;;;;;;5096537;28;20365;-64
2021/06/08 01:54:48;;;;;;;80.10;44.78;;;11.90;99.90;;;;;;5089745;28;20046;-64
2021/06/08 01:57:23;;;;;;;55.60;41.67;;;11.90;99.90;;;;;;5093331;28;20036;-64
2021/06/08 02:00:05;;;;;;;77.75;41.72;;;11.80;99.90;;;;;;5104521;28;20483;-64
2021/06/08 02:02:31;;;;;;;112.22;43.10;;;11.80;99.90;;;;;;5091838;28;20036;-64
2021/06/08 02:05:14;;;;;;;61.20;42.85;;;11.80;99.90;;;;;;5103897;28;20047;-64
2021/06/08 02:07:58;;;;;;;65.45;43.15;;;11.80;99.90;;;;;;5098150;28;20067;-64
2021/06/08 02:10:49;;;;;;;72.65;44.22;;;11.80;99.90;;;;;;5102884;28;20413;-64
2021/06/08 02:13:25;;;;;;;57.22;40.20;;;11.70;99.90;;;;;;5098840;28;20059;-64
2021/06/08 02:15:59;;;;;;;67.68;43.00;;;11.70;99.90;;;;;;5097011;28;20054;-64
2021/06/08 02:18:29;;;;;;;57.55;41.15;;;11.70;99.90;;;;;;5094384;28;20082;-64
2021/06/08 02:21:01;;;;;;;83.10;40.58;;;11.70;99.90;;;;;;5097070;28;20044;-64
2021/06/08 02:23:35;;;;;;;91.43;46.08;;;11.80;99.90;;;;;;5098751;27;20036;-64
2021/06/08 02:26:03;;;;;;;68.30;44.90;;;11.70;99.90;;;;;;5102612;28;20047;-64
2021/06/08 02:28:36;;;;;;;70.90;44.10;;;11.70;99.90;;;;;;5095124;28;20071;-64
2021/06/08 02:31:06;;;;;;;69.07;43.25;;;11.80;99.90;;;;;;5101086;28;20118;-64
2021/06/08 02:33:38;;;;;;;91.28;48.28;;;11.70;99.90;;;;;;5093575;28;20464;-64
2021/06/08 02:36:08;;;;;;;71.30;45.15;;;11.80;99.90;;;;;;5108842;28;20040;-64
2021/06/08 02:38:41;;;;;;;99.78;46.67;;;11.80;99.90;;;;;;5094311;28;20040;-64
2021/06/08 02:41:08;;;;;;;67.30;43.83;;;11.80;99.90;;;;;;5102149;28;20111;-64
2021/06/08 02:43:36;;;;;;;73.15;43.58;;;11.80;99.90;;;;;;5075428;28;20125;-64
2021/06/08 02:46:09;;;;;;;74.97;41.78;;;11.80;99.90;;;;;;5099404;28;20092;-64
2021/06/08 02:48:38;;;;;;;88.70;45.05;;;11.80;99.90;;;;;;5092142;28;20446;-64
2021/06/08 02:51:05;;;;;;;57.28;38.08;;;11.80;99.90;;;;;;5099306;28;20315;-64
2021/06/08 02:53:32;;;;;;;73.75;42.97;;;11.80;99.90;;;;;;5090677;28;20048;-64
2021/06/08 02:55:58;;;;;;;58.30;38.75;;;11.80;99.90;;;;;;5105948;28;20160;-64
2021/06/08 02:58:26;;;;;;;54.53;38.70;;;11.80;99.90;;;;;;5092878;28;20597;-64
2021/06/08 03:00:54;;;;;;;52.15;39.20;;;11.90;99.90;;;;;;5101678;28;20043;-64
2021/06/08 03:03:35;;;;;;;64.18;37.45;;;12.00;99.90;;;;;;5106317;28;20074;-64
2021/06/08 03:06:10;;;;;;;53.70;37.88;;;12.00;99.90;;;;;;5097577;28;20057;-64
2021/06/08 03:08:38;;;;;;;86.93;42.95;;;11.90;99.90;;;;;;5097237;28;20036;-64
2021/06/08 03:11:23;;;;;;;71.65;40.63;;;11.90;99.90;;;;;;5102269;28;20380;-64
2021/06/08 03:13:58;;;;;;;56.08;38.78;;;11.90;99.90;;;;;;5100016;28;20122;-64
2021/06/08 03:16:27;;;;;;;63.67;40.88;;;11.80;99.90;;;;;;5098333;28;20233;-64
2021/06/08 03:18:56;;;;;;;63.80;41.80;;;11.80;99.90;;;;;;5099856;28;20048;-64
2021/06/08 03:21:30;;;;;;;57.95;41.65;;;11.90;99.90;;;;;;5090211;28;20127;-64
2021/06/08 03:24:01;;;;;;;60.35;41.40;;;12.00;99.90;;;;;;5095576;28;20032;-64
2021/06/08 03:26:29;;;;;;;52.80;37.80;;;12.00;99.90;;;;;;5094824;28;20051;-64
2021/06/08 03:28:57;;;;;;;55.58;39.67;;;12.10;99.90;;;;;;5100754;28;20266;-64
2021/06/08 03:31:25;;;;;;;59.85;39.58;;;12.10;99.90;;;;;;5096786;28;20395;-64
2021/06/08 03:33:51;;;;;;;56.20;40.58;;;12.10;99.90;;;;;;5098698;28;20047;-64
2021/06/08 03:36:18;;;;;;;59.25;39.47;;;12.00;99.90;;;;;;5098020;28;20043;-64
2021/06/08 03:38:44;;;;;;;56.50;38.30;;;12.00;99.90;;;;;;5089826;28;20062;-64
2021/06/08 03:41:11;;;;;;;55.03;39.25;;;12.00;99.90;;;;;;5095619;27;20051;-64
2021/06/08 03:43:38;;;;;;;73.97;45.47;;;12.00;99.90;;;;;;5098669;28;20044;-64
2021/06/08 03:46:04;;;;;;;64.20;42.95;;;12.10;99.90;;;;;;5090779;28;20040;-64
2021/06/08 03:48:32;;;;;;;60.70;41.15;;;12.10;99.90;;;;;;5094976;28;20077;-64
2021/06/08 03:50:59;;;;;;;56.28;39.83;;;12.10;99.90;;;;;;5099631;28;20053;-64
2021/06/08 03:53:25;;;;;;;54.70;38.70;;;12.10;99.90;;;;;;5104112;28;20368;-64
2021/06/08 03:55:52;;;;;;;58.70;40.10;;;12.10;99.90;;;;;;5094694;28;20040;-64
2021/06/08 03:58:20;;;;;;;64.10;42.20;;;12.20;99.90;;;;;;5105710;28;20537;-64
2021/06/08 04:00:48;;;;;;;52.75;38.85;;;12.10;99.90;;;;;;5088946;28;20105;-64
2021/06/08 04:03:17;;;;;;;46.33;36.78;;;12.10;99.90;;;;;;5094638;28;20028;-64
2021/06/08 04:05:43;;;;;;;50.95;36.67;;;12.10;99.90;;;;;;5096364;28;20036;-64
2021/06/08 04:08:11;;;;;;;57.75;39.75;;;12.10;99.90;;;;;;5093319;28;20070;-64
2021/06/08 04:10:39;;;;;;;51.35;39.33;;;12.10;99.90;;;;;;5095481;28;20444;-64
2021/06/08 04:13:05;;;;;;;46.60;36.85;;;12.10;99.90;;;;;;5092202;28;20051;-64
2021/06/08 04:15:32;;;;;;;46.50;36.30;;;12.10;99.90;;;;;;5096779;28;20044;-64
2021/06/08 04:17:59;;;;;;;45.42;36.28;;;12.10;99.90;;;;;;5093356;28;20657;-64
2021/06/08 04:20:28;;;;;;;42.60;35.72;;;12.10;99.90;;;;;;5095731;28;20040;-64
2021/06/08 04:22:58;;;;;;;48.47;37.72;;;12.10;99.90;;;;;;5093173;28;20051;-64
2021/06/08 04:25:25;;;;;;;44.13;36.90;;;12.10;99.90;;;;;;5093852;28;20079;-64
2021/06/08 04:27:52;;;;;;;53.72;46.70;;;12.10;99.90;;;;;;5095131;28;20121;-64
2021/06/08 04:30:22;;;;;;;75.43;40.72;;;12.10;99.90;;;;;;5095024;28;20487;-64
2021/06/08 04:32:49;;;;;;;49.20;39.35;;;12.20;99.90;;;;;;5090378;28;20642;-64
2021/06/08 04:35:17;;;;;;;64.53;42.08;;;12.20;99.90;;;;;;5106765;28;20053;-64
2021/06/08 04:37:43;;;;;;;58.30;41.88;;;12.10;99.90;;;;;;5099711;28;20035;-64
2021/06/08 04:40:11;;;;;;;52.78;39.15;;;12.10;99.90;;;;;;5103635;28;20503;-64
2021/06/08 04:42:38;;;;;;;51.13;38.90;;;12.20;99.90;;;;;;5096650;28;20055;-64
2021/06/08 04:45:04;;;;;;;42.97;35.17;;;12.20;99.90;;;;;;5096828;28;20063;-64
2021/06/08 04:47:30;;;;;;;50.30;37.47;;;12.20;99.90;;;;;;5095126;27;21592;-64
2021/06/08 04:49:56;;;;;;;47.55;38.63;;;12.30;99.90;;;;;;5103142;27;20059;-64
2021/06/08 04:52:43;;;;;;;51.42;40.65;;;12.30;99.90;;;;;;5082009;28;20130;-64
2021/06/08 04:55:12;;;;;;;51.20;39.13;;;12.30;99.90;;;;;;5104617;28;20040;-64
2021/06/08 04:57:58;;;;;;;47.15;37.53;;;12.30;99.90;;;;;;5083518;28;20040;-63
2021/06/08 05:00:37;;;;;;;47.00;39.15;;;12.30;99.90;;;;;;5099244;28;20047;-64
2021/06/08 05:03:14;;;;;;;43.70;36.67;;;12.30;99.90;;;;;;5100510;28;20036;-64
2021/06/08 05:05:44;;;;;;;40.67;34.72;;;12.30;99.90;;;;;;5102014;28;20048;-64
2021/06/08 05:08:21;;;;;;;46.03;37.88;;;12.30;99.90;;;;;;5100159;28;20056;-64
2021/06/08 05:11:21;;;;;;;42.42;35.72;;;12.40;99.90;;;;;;5105816;28;20139;-64
2021/06/08 05:13:51;;;;;;;46.75;38.35;;;12.50;99.90;;;;;;5097242;28;20402;-64
2021/06/08 05:16:18;;;;;;;50.17;39.83;;;12.50;99.90;;;;;;5098019;28;20440;-64
2021/06/08 05:18:50;;;;;;;47.22;39.40;;;12.50;99.90;;;;;;5097421;27;20050;-64
2021/06/08 05:21:18;;;;;;;54.05;42.13;;;12.50;99.90;;;;;;5108885;28;20457;-64
2021/06/08 05:23:46;;;;;;;49.63;39.47;;;12.50;99.90;;;;;;5102416;28;20044;-64
2021/06/08 05:26:22;;;;;;;53.72;44.45;;;12.60;99.90;;;;;;5098522;28;20071;-64
2021/06/08 05:29:08;;;;;;;53.03;43.17;;;12.60;99.90;;;;;;5105838;28;20127;-65
2021/06/08 05:31:34;;;;;;;48.90;39.80;;;12.60;99.90;;;;;;5096434;28;20044;-65
2021/06/08 05:34:02;;;;;;;50.17;40.92;;;12.70;99.90;;;;;;5099274;27;20096;-64
2021/06/08 05:36:32;;;;;;;52.38;41.90;;;12.80;99.90;;;;;;5093203;28;20042;-64
2021/06/08 05:38:59;;;;;;;43.75;38.97;;;12.80;99.90;;;;;;5096054;28;20054;-64
2021/06/08 05:41:27;;;;;;;47.53;40.22;;;13.00;99.90;;;;;;5100732;28;20047;-64
2021/06/08 05:43:53;;;;;;;47.63;38.53;;;13.00;99.90;;;;;;5103872;28;20031;-64
2021/06/08 05:46:20;;;;;;;54.05;42.70;;;13.00;99.90;;;;;;5095386;28;20032;-64
2021/06/08 05:48:47;;;;;;;52.35;41.75;;;13.10;99.90;;;;;;5110339;28;20403;-65
2021/06/08 05:51:17;;;;;;;47.10;39.30;;;13.10;99.90;;;;;;5099234;28;20044;-64
2021/06/08 05:53:47;;;;;;;46.60;38.92;;;13.10;99.90;;;;;;5105979;28;20397;-64
2021/06/08 05:56:14;;;;;;;43.97;37.60;;;13.20;99.90;;;;;;5101222;28;20047;-64
2021/06/08 05:58:54;;;;;;;45.10;37.30;;;13.20;99.90;;;;;;5108868;28;20095;-64
2021/06/08 06:01:22;;;;;;;44.95;37.33;;;13.10;99.90;;;;;;5099554;28;20073;-65
2021/06/08 06:03:50;;;;;;;54.80;46.75;;;13.10;99.90;;;;;;5106561;28;20103;-65
2021/06/08 06:06:17;;;;;;;46.30;39.60;;;13.10;99.90;;;;;;5101996;28;20036;-65
2021/06/08 06:08:45;;;;;;;47.63;39.58;;;13.10;99.90;;;;;;5108877;28;20344;-65
2021/06/08 06:11:14;;;;;;;38.03;33.03;;;13.10;99.90;;;;;;5098384;28;20105;-65
2021/06/08 06:13:54;;;;;;;45.47;37.70;;;13.20;99.90;;;;;;5097377;28;20134;-65
2021/06/08 06:16:26;;;;;;;38.45;34.25;;;13.30;99.90;;;;;;5099706;28;20082;-65
2021/06/08 06:18:52;;;;;;;42.50;37.08;;;13.20;99.90;;;;;;5102862;27;20118;-65
2021/06/08 06:21:39;;;;;;;41.67;35.22;;;13.30;99.90;;;;;;5082102;28;20123;-65
2021/06/08 06:24:05;;;;;;;40.30;35.58;;;13.30;99.90;;;;;;5096215;28;20035;-65
2021/06/08 06:26:35;;;;;;;41.90;35.55;;;13.30;99.90;;;;;;5099110;27;20047;-65
2021/06/08 06:29:18;;;;;;;39.17;33.50;;;13.30;99.90;;;;;;5096428;28;20047;-65
2021/06/08 06:32:04;;;;;;;41.88;37.28;;;13.40;99.90;;;;;;5080213;28;20433;-64
2021/06/08 06:34:31;;;;;;;41.78;36.65;;;13.60;99.90;;;;;;5107351;28;20080;-65
2021/06/08 06:36:59;;;;;;;45.47;39.28;;;13.60;99.90;;;;;;5100898;28;20053;-65
2021/06/08 06:39:28;;;;;;;46.80;38.05;;;13.60;99.90;;;;;;5097653;28;20043;-65
2021/06/08 06:41:56;;;;;;;44.22;36.92;;;13.60;99.90;;;;;;5098893;27;20043;-65
2021/06/08 06:44:24;;;;;;;42.88;37.67;;;13.70;99.90;;;;;;5095284;28;20102;-65
2021/06/08 06:46:52;;;;;;;46.80;38.97;;;13.80;99.90;;;;;;5100904;28;20048;-65
2021/06/08 06:49:20;;;;;;;43.45;37.10;;;13.90;99.90;;;;;;5091856;28;20497;-65
2021/06/08 06:51:48;;;;;;;42.25;36.03;;;13.90;99.90;;;;;;5096872;28;20506;-65
2021/06/08 06:54:15;;;;;;;41.60;36.28;;;14.00;99.90;;;;;;5098107;27;20051;-65
2021/06/08 06:56:44;;;;;;;41.08;35.72;;;14.20;99.90;;;;;;5101593;28;20050;-65
2021/06/08 06:59:09;;;;;;;43.80;37.95;;;14.30;99.70;;;;;;5098927;28;20228;-65
2021/06/08 07:01:36;;;;;;;43.13;38.30;;;14.40;99.40;;;;;;5106520;27;20055;-66
2021/06/08 07:04:05;;;;;;;46.08;38.35;;;14.40;99.30;;;;;;5094314;28;20047;-65
2021/06/08 07:06:31;;;;;;;42.85;36.55;;;14.40;99.20;;;;;;5100038;28;20089;-65
2021/06/08 07:09:00;;;;;;;41.78;36.33;;;14.50;99.30;;;;;;5091599;28;20042;-67
2021/06/08 07:11:28;;;;;;;41.90;35.33;;;14.70;99.40;;;;;;5097992;28;20047;-66
2021/06/08 07:13:54;;;;;;;44.38;34.53;;;14.90;98.80;;;;;;5092063;28;20032;-67
2021/06/08 07:16:23;;;;;;;42.58;37.47;;;15.00;98.40;;;;;;5100000;28;20526;-65
2021/06/08 07:18:49;;;;;;;49.42;40.60;;;15.10;98.20;;;;;;5099589;28;20221;-65
2021/06/08 07:21:16;;;;;;;46.40;38.17;;;15.00;97.80;;;;;;5092990;28;20048;-65
2021/06/08 07:23:45;;;;;;;50.25;38.83;;;14.90;98.10;;;;;;5093798;27;20052;-65
2021/06/08 07:26:13;;;;;;;47.70;39.00;;;15.00;98.10;;;;;;5105170;27;20137;-65
2021/06/08 07:28:59;;;;;;;48.35;38.40;;;15.10;98.10;;;;;;5080986;28;20457;-65
2021/06/08 07:31:49;;;;;;;48.08;40.28;;;15.30;98.50;;;;;;5094694;28;20044;-65
2021/06/08 07:34:34;;;;;;;51.90;41.08;;;15.60;98.20;;;;;;5097806;28;20638;-65
2021/06/08 07:37:03;;;;;;;43.45;37.95;;;15.70;97.30;;;;;;5102526;28;20564;-66
2021/06/08 07:39:52;;;;;;;44.40;37.05;;;15.60;96.90;;;;;;5096176;27;20043;-66
2021/06/08 07:42:36;;;;;;;41.53;35.20;;;15.60;96.90;;;;;;5094771;28;20052;-66
2021/06/08 07:45:05;;;;;;;42.60;34.17;;;15.60;96.90;;;;;;5091205;28;20043;-66
2021/06/08 07:47:36;;;;;;;38.50;33.60;;;15.80;96.90;;;;;;5094172;28;20054;-66
2021/06/08 07:50:08;;;;;;;42.47;33.80;;;15.90;96.80;;;;;;5091214;28;20040;-66
2021/06/08 07:52:52;;;;;;;40.70;33.03;;;16.10;96.60;;;;;;5096343;28;20052;-66
2021/06/08 07:55:19;;;;;;;39.75;34.67;;;16.20;96.30;;;;;;5096090;28;20484;-65
2021/06/08 07:57:51;;;;;;;37.83;32.47;;;16.30;96.20;;;;;;5096717;28;20051;-65
2021/06/08 08:00:38;;;;;;;37.92;32.75;;;16.40;96.10;;;;;;5075675;28;20067;-65
2021/06/08 08:03:30;;;;;;;34.75;30.55;;;16.50;95.70;;;;;;5102899;28;20509;-65
2021/06/08 08:06:03;;;;;;;34.88;31.08;;;16.70;95.60;;;;;;5091276;28;20092;-65
2021/06/08 08:08:32;;;;;;;34.55;29.27;;;16.90;94.60;;;;;;5095804;28;20052;-64
2021/06/08 08:11:00;;;;;;;31.63;27.70;;;17.00;94.20;;;;;;5094083;28;20039;-64
2021/06/08 08:13:32;;;;;;;30.75;27.45;;;17.20;94.10;;;;;;5101405;28;20365;-65
2021/06/08 08:16:15;;;;;;;28.92;25.17;;;17.30;93.60;;;;;;5083808;28;20537;-65
2021/06/08 08:18:43;;;;;;;24.92;22.33;;;17.30;93.70;;;;;;5094419;28;20086;-65
2021/06/08 08:21:14;;;;;;;24.00;21.58;;;17.50;93.00;;;;;;5103166;28;20050;-65
2021/06/08 08:23:41;;;;;;;26.00;23.30;;;17.70;91.80;;;;;;5099150;28;20040;-65
2021/06/08 08:26:27;;;;;;;24.50;21.98;;;17.80;92.40;;;;;;5077147;28;20413;-65
2021/06/08 08:29:09;;;;;;;23.35;20.85;;;18.00;92.50;;;;;;5106508;28;20044;-65
2021/06/08 08:31:36;;;;;;;20.85;18.65;;;18.30;91.10;;;;;;5094928;28;20044;-65
2021/06/08 08:34:04;;;;;;;21.30;19.13;;;18.50;91.00;;;;;;5099568;28;20066;-65
2021/06/08 08:36:35;;;;;;;19.80;17.80;;;18.60;90.70;;;;;;5091077;28;20084;-65
2021/06/08 08:39:01;;;;;;;17.48;15.65;;;18.80;89.40;;;;;;5095348;28;20040;-64
2021/06/08 08:41:28;;;;;;;18.38;16.30;;;19.00;89.20;;;;;;5096473;28;20051;-65
2021/06/08 08:44:09;;;;;;;17.23;14.98;;;19.20;86.30;;;;;;5102675;28;20044;-65
2021/06/08 08:46:55;;;;;;;14.25;12.82;;;19.40;86.60;;;;;;5098264;28;20632;-65
2021/06/08 08:49:40;;;;;;;15.73;14.07;;;19.50;83.20;;;;;;5095936;28;20403;-66
2021/06/08 08:52:08;;;;;;;13.77;12.40;;;19.50;84.50;;;;;;5091674;28;20050;-66
2021/06/08 08:54:49;;;;;;;13.68;12.27;;;19.70;85.10;;;;;;5097993;28;20060;-66
2021/06/08 08:57:18;;;;;;;12.90;11.70;;;19.90;83.20;;;;;;5095140;28;20483;-66
2021/06/08 09:00:04;;;;;;;13.98;10.93;;;20.10;78.50;;;;;;5096446;28;20047;-66
2021/06/08 09:02:53;;;;;;;10.77;9.73;;;20.30;78.60;;;;;;5088167;28;20460;-66
2021/06/08 09:05:20;;;;;;;9.45;8.40;;;20.40;74.40;;;;;;5097857;28;20443;-66
2021/06/08 09:07:46;;;;;;;10.50;9.50;;;20.60;73.20;;;;;;5089604;28;20052;-66
2021/06/08 09:10:17;;;;;;;8.23;7.43;;;20.60;72.40;;;;;;5094195;28;20055;-66
2021/06/08 09:12:44;;;;;;;7.10;6.30;;;20.80;71.50;;;;;;5095363;28;20432;-66
2021/06/08 09:15:13;;;;;;;7.05;6.18;;;21.00;67.60;;;;;;5103069;28;20044;-66
2021/06/08 09:17:42;;;;;;;6.57;5.97;;;21.20;69.10;;;;;;5096541;28;20148;-66
2021/06/08 09:20:10;;;;;;;8.23;5.50;;;21.50;67.90;;;;;;5094667;28;20040;-66
2021/06/08 09:22:52;;;;;;;8.00;7.18;;;21.80;67.80;;;;;;5091714;28;20039;-66
2021/06/08 09:25:40;;;;;;;7.10;6.40;;;22.00;62.70;;;;;;5088337;28;20044;-66
2021/06/08 09:28:30;;;;;;;7.32;6.07;;;22.10;59.20;;;;;;5094988;28;20056;-66
2021/06/08 09:31:11;;;;;;;7.40;5.97;;;22.00;59.80;;;;;;5102485;28;20040;-66
2021/06/08 09:33:48;;;;;;;5.40;4.78;;;21.90;60.70;;;;;;5092665;28;20034;-67
2021/06/08 09:36:16;;;;;;;5.38;4.88;;;22.10;61.90;;;;;;5096011;28;20040;-67
2021/06/08 09:39:04;;;;;;;4.28;3.60;;;22.40;62.20;;;;;;5098524;28;20047;-67
2021/06/08 09:41:33;;;;;;;3.53;2.95;;;22.90;64.40;;;;;;5102295;27;20070;-66
2021/06/08 09:44:07;;;;;;;3.47;1.98;;;23.30;59.40;;;;;;5096896;27;20047;-66
2021/06/08 09:46:52;;;;;;;4.72;2.50;;;23.40;54.10;;;;;;5099746;28;20047;-66
2021/06/08 09:49:33;;;;;;;4.22;2.80;;;23.70;52.10;;;;;;5092295;28;20468;-66
2021/06/08 09:52:08;;;;;;;3.20;2.90;;;23.80;54.00;;;;;;5106101;28;20047;-66
2021/06/08 09:54:38;;;;;;;4.60;3.30;;;24.00;54.20;;;;;;5098136;28;20064;-67
2021/06/08 09:57:27;;;;;;;3.75;3.20;;;24.00;55.40;;;;;;5098244;28;20043;-67
2021/06/08 09:59:58;;;;;;;4.82;4.32;;;24.10;52.10;;;;;;5096037;28;20055;-67
2021/06/08 10:02:39;;;;;;;4.30;3.90;;;24.10;52.90;;;;;;5101032;28;20138;-67
2021/06/08 10:05:21;;;;;;;5.28;4.30;;;24.10;52.00;;;;;;5093117;28;20036;-67
2021/06/08 10:07:49;;;;;;;6.53;5.70;;;24.20;54.50;;;;;;5102736;28;20079;-67
2021/06/08 10:10:17;;;;;;;5.32;4.25;;;24.40;54.10;;;;;;5091769;28;20146;-67
2021/06/08 10:13:03;;;;;;;5.68;4.28;;;24.80;55.30;;;;;;5099484;27;20394;-67
2021/06/08 10:15:55;;;;;;;3.97;3.53;;;25.10;49.10;;;;;;5099411;27;20134;-67
2021/06/08 10:18:21;;;;;;;3.78;2.60;;;25.10;49.30;;;;;;5087876;28;20431;-67
2021/06/08 10:20:49;;;;;;;3.90;2.50;;;25.10;51.10;;;;;;5091245;28;20050;-67
2021/06/08 10:23:30;;;;;;;3.85;2.78;;;25.10;50.40;;;;;;5098534;28;20399;-67
2021/06/08 10:25:59;;;;;;;4.32;3.35;;;25.30;49.20;;;;;;5096204;27;20051;-67
2021/06/08 10:28:26;;;;;;;3.83;3.13;;;25.50;48.40;;;;;;5103304;28;20055;-67
2021/06/08 10:30:53;;;;;;;3.83;2.58;;;25.50;46.60;;;;;;5095655;27;20040;-67
2021/06/08 10:33:22;;;;;;;3.92;3.42;;;25.70;46.70;;;;;;5106800;28;20043;-67
2021/06/08 10:35:51;;;;;;;3.28;2.83;;;25.70;45.30;;;;;;5100346;28;20028;-67
2021/06/08 10:38:17;;;;;;;3.33;2.40;;;25.90;48.90;;;;;;5096431;28;20108;-67
2021/06/08 10:40:48;;;;;;;3.05;2.70;;;26.00;47.60;;;;;;5094498;28;20048;-67
2021/06/08 10:43:23;;;;;;;4.57;2.60;;;26.00;45.50;;;;;;5092028;28;20055;-67
2021/06/08 10:45:55;;;;;;;3.78;2.65;;;25.90;44.10;;;;;;5102109;28;20123;-67
2021/06/08 10:48:27;;;;;;;3.28;2.42;;;26.20;45.00;;;;;;5092299;28;20047;-67
2021/06/08 10:51:14;;;;;;;4.00;2.67;;;26.60;45.40;;;;;;5094529;28;20051;-67
2021/06/08 10:53:47;;;;;;;5.40;2.65;;;26.90;44.80;;;;;;5089783;28;20075;-67
2021/06/08 10:56:36;;;;;;;3.38;2.80;;;26.80;41.90;;;;;;5100379;28;20044;-65
2021/06/08 10:59:10;;;;;;;4.13;2.22;;;26.80;42.50;;;;;;5097763;28;20476;-65
2021/06/08 11:04:04;;;;;;;4.35;2.38;;;27.00;43.60;;;;;;5092583;28;20047;-67
2021/06/08 11:06:48;;;;;;;5.10;2.30;;;27.10;43.50;;;;;;5106746;28;20048;-65
2021/06/08 11:09:23;;;;;;;3.20;1.90;;;27.40;40.30;;;;;;5099359;28;20147;-65
2021/06/08 11:11:54;;;;;;;5.25;2.72;;;27.40;39.90;;;;;;5107911;28;20440;-65
2021/06/08 11:17:06;;;;;;;3.97;2.58;;;27.10;41.20;;;;;;5098933;28;20435;-65
2021/06/08 11:19:41;;;;;;;2.33;1.42;;;27.20;41.90;;;;;;5097019;28;20047;-65
2021/06/08 11:22:08;;;;;;;2.20;1.40;;;27.40;42.20;;;;;;5077201;28;20467;-65
2021/06/08 11:24:36;;;;;;;2.75;1.58;;;27.60;40.90;;;;;;5094537;28;20075;-65
2021/06/08 11:27:02;;;;;;;2.92;1.63;;;27.60;41.00;;;;;;5100752;28;20054;-65
2021/06/08 11:29:54;;;;;;;2.60;1.90;;;27.40;41.90;;;;;;5088864;28;20047;-65
2021/06/08 11:32:29;;;;;;;6.88;5.47;;;27.60;40.30;;;;;;5096208;28;20051;-65
2021/06/08 11:35:06;;;;;;;2.83;1.58;;;27.50;39.20;;;;;;5096955;27;20524;-65
2021/06/08 11:37:53;;;;;;;2.35;1.38;;;27.60;40.60;;;;;;5103463;28;20374;-65
2021/06/08 11:40:35;;;;;;;2.05;1.02;;;27.60;37.10;;;;;;5095567;28;20035;-65
2021/06/08 11:43:11;;;;;;;2.55;1.25;;;27.50;36.90;;;;;;5107621;28;20487;-65
2021/06/08 11:45:46;;;;;;;2.65;1.23;;;27.40;38.40;;;;;;5101218;28;20039;-65
2021/06/08 11:48:35;;;;;;;2.97;1.08;;;27.40;39.10;;;;;;5100942;28;20377;-65
2021/06/08 11:51:24;;;;;;;2.25;0.60;;;27.60;38.90;;;;;;5097605;28;20058;-65
2021/06/08 11:54:11;;;;;;;1.45;0.60;;;27.70;38.50;;;;;;5105375;28;20553;-65
2021/06/08 11:56:45;;;;;;;3.70;1.60;;;27.90;37.40;;;;;;5098572;28;20051;-65
2021/06/08 11:59:17;;;;;;;3.10;2.30;;;27.90;37.50;;;;;;5100915;28;20044;-65
2021/06/08 12:01:47;;;;;;;2.72;1.98;;;27.90;40.60;;;;;;5095018;28;20044;-65
2021/06/08 12:04:14;;;;;;;5.57;2.72;;;27.80;41.40;;;;;;5097495;28;20437;-65
2021/06/08 12:06:55;;;;;;;3.60;2.40;;;27.60;39.30;;;;;;5096110;28;20051;-66
2021/06/08 12:09:22;;;;;;;3.58;2.25;;;27.60;38.70;;;;;;5096845;28;20443;-65
2021/06/08 12:11:49;;;;;;;4.47;2.80;;;27.80;39.70;;;;;;5090070;28;20429;-65
2021/06/08 12:14:17;;;;;;;3.65;2.33;;;27.70;40.80;;;;;;5095954;28;20406;-65
2021/06/08 12:16:48;;;;;;;2.70;2.20;;;27.80;39.80;;;;;;5099998;28;20551;-65
2021/06/08 12:19:16;;;;;;;3.28;2.47;;;27.90;40.30;;;;;;5096522;28;20055;-65
2021/06/08 12:21:44;;;;;;;3.78;2.60;;;27.80;40.40;;;;;;5089268;28;20388;-65
2021/06/08 12:24:20;;;;;;;2.85;2.50;;;27.60;41.20;;;;;;5094220;28;20043;-65
2021/06/08 12:26:54;;;;;;;3.47;2.67;;;27.40;39.70;;;;;;5094784;28;20050;-65
2021/06/08 12:29:21;;;;;;;4.03;2.80;;;27.20;39.90;;;;;;5096941;28;20040;-65
2021/06/08 12:31:53;;;;;;;5.18;2.70;;;26.90;40.60;;;;;;5089565;28;20118;-65
2021/06/08 12:34:20;;;;;;;4.68;3.88;;;27.00;41.80;;;;;;5094474;28;20209;-65
2021/06/08 12:36:48;;;;;;;5.30;3.55;;;27.20;41.90;;;;;;5095440;28;20047;-65
2021/06/08 12:39:20;;;;;;;3.78;2.38;;;26.90;41.60;;;;;;5097867;28;20598;-65
2021/06/08 12:41:47;;;;;;;4.93;2.90;;;27.10;43.10;;;;;;5091380;28;20089;-65
2021/06/08 12:44:25;;;;;;;3.08;2.50;;;27.30;43.30;;;;;;5092749;28;20074;-65
2021/06/08 12:46:51;;;;;;;4.35;3.10;;;27.60;41.50;;;;;;5090047;28;20131;-65
2021/06/08 12:49:19;;;;;;;3.55;2.67;;;27.60;41.10;;;;;;5094431;28;20147;-65
2021/06/08 12:51:51;;;;;;;3.95;2.88;;;27.80;43.30;;;;;;5096266;28;20027;-65
2021/06/08 12:54:40;;;;;;;3.58;2.80;;;27.60;41.30;;;;;;5094276;28;20050;-65
2021/06/08 12:57:10;;;;;;;3.85;2.45;;;27.70;40.00;;;;;;5091524;28;20062;-65
2021/06/08 12:59:46;;;;;;;3.05;2.75;;;27.70;41.50;;;;;;5103080;28;20494;-65
2021/06/08 13:02:15;;;;;;;3.28;2.30;;;27.50;39.80;;;;;;5094165;28;20058;-66